sensor_id;sensor_type;location;lat;lon;timestamp;pressure;altitude;pressure_sealevel;temperature;humidity
84884;BME280;75145;49.188;8.122;2023-12-29T00:00:00;99947.34;;;9.08;88.58
84884;BME280;75145;49.188;8.122;2023-12-29T00:02:25;99955.28;;;9.08;88.54
84884;BME280;75145;49.188;8.122;2023-12-29T00:04:51;99957.38;;;9.16;88.46
84884;BME280;75145;49.188;8.122;2023-12-29T00:07:16;99950.56;;;9.24;87.80
84884;BME280;75145;49.188;8.122;2023-12-29T00:09:41;99945.59;;;9.32;87.29
84884;BME280;75145;49.188;8.122;2023-12-29T00:12:07;99941.69;;;9.25;87.22
84884;BME280;75145;49.188;8.122;2023-12-29T00:14:33;99952.38;;;9.24;88.08
84884;BME280;75145;49.188;8.122;2023-12-29T00:16:59;99956.97;;;9.09;88.57
84884;BME280;75145;49.188;8.122;2023-12-29T00:19:25;99948.22;;;8.96;88.36
84884;BME280;75145;49.188;8.122;2023-12-29T00:21:50;99959.84;;;8.93;88.93
84884;BME280;75145;49.188;8.122;2023-12-29T00:24:15;99951.19;;;8.91;90.40
84884;BME280;75145;49.188;8.122;2023-12-29T00:26:42;99936.22;;;8.92;90.24
84884;BME280;75145;49.188;8.122;2023-12-29T00:29:07;99939.81;;;8.91;90.00
84884;BME280;75145;49.188;8.122;2023-12-29T00:31:33;99946.03;;;8.90;89.23
84884;BME280;75145;49.188;8.122;2023-12-29T00:33:58;99948.69;;;8.90;90.43
84884;BME280;75145;49.188;8.122;2023-12-29T00:36:24;99923.69;;;8.82;89.63
84884;BME280;75145;49.188;8.122;2023-12-29T00:38:49;99943.41;;;8.90;89.85
84884;BME280;75145;49.188;8.122;2023-12-29T00:41:15;99943.41;;;8.90;89.28
84884;BME280;75145;49.188;8.122;2023-12-29T00:43:40;99939.81;;;8.91;89.57
84884;BME280;75145;49.188;8.122;2023-12-29T00:46:05;99918.47;;;8.94;89.96
84884;BME280;75145;49.188;8.122;2023-12-29T00:48:31;99920.38;;;8.92;89.88
84884;BME280;75145;49.188;8.122;2023-12-29T00:50:57;99938.53;;;8.96;89.95
84884;BME280;75145;49.188;8.122;2023-12-29T00:53:22;99935.53;;;9.01;90.47
84884;BME280;75145;49.188;8.122;2023-12-29T00:55:47;99929.31;;;9.02;88.82
84884;BME280;75145;49.188;8.122;2023-12-29T00:58:13;99929.13;;;9.05;89.54
84884;BME280;75145;49.188;8.122;2023-12-29T01:00:38;99933.66;;;9.03;89.20
84884;BME280;75145;49.188;8.122;2023-12-29T01:03:04;99937.66;;;9.08;89.26
84884;BME280;75145;49.188;8.122;2023-12-29T01:05:29;99947.47;;;9.06;89.47
84884;BME280;75145;49.188;8.122;2023-12-29T01:07:55;99927.31;;;9.05;89.50
84884;BME280;75145;49.188;8.122;2023-12-29T01:10:20;99923.72;;;9.06;90.20
84884;BME280;75145;49.188;8.122;2023-12-29T01:12:46;99922.34;;;9.01;88.94
84884;BME280;75145;49.188;8.122;2023-12-29T01:15:11;99928.09;;;8.95;89.82
84884;BME280;75145;49.188;8.122;2023-12-29T01:17:36;99925.44;;;8.95;89.91
84884;BME280;75145;49.188;8.122;2023-12-29T01:20:02;99923.31;;;9.00;89.04
84884;BME280;75145;49.188;8.122;2023-12-29T01:22:29;99927.44;;;9.04;89.75
84884;BME280;75145;49.188;8.122;2023-12-29T01:24:54;99925.84;;;9.01;89.70
84884;BME280;75145;49.188;8.122;2023-12-29T01:27:20;99924.25;;;8.99;89.48
84884;BME280;75145;49.188;8.122;2023-12-29T01:29:45;99916.13;;;9.02;89.01
84884;BME280;75145;49.188;8.122;2023-12-29T01:32:10;99918.03;;;9.00;88.56
84884;BME280;75145;49.188;8.122;2023-12-29T01:34:36;99917.41;;;8.96;89.30
84884;BME280;75145;49.188;8.122;2023-12-29T01:37:02;99927.97;;;8.96;88.48
84884;BME280;75145;49.188;8.122;2023-12-29T01:39:29;99919.66;;;8.90;89.71
84884;BME280;75145;49.188;8.122;2023-12-29T01:41:55;99926.94;;;8.86;89.42
84884;BME280;75145;49.188;8.122;2023-12-29T01:44:22;99921.44;;;8.89;90.02
84884;BME280;75145;49.188;8.122;2023-12-29T01:46:53;99920.59;;;8.89;89.21
84884;BME280;75145;49.188;8.122;2023-12-29T01:49:19;99925.66;;;8.92;88.70
84884;BME280;75145;49.188;8.122;2023-12-29T01:51:49;99916.81;;;8.93;88.74
84884;BME280;75145;49.188;8.122;2023-12-29T01:54:16;99900.97;;;8.93;89.55
84884;BME280;75145;49.188;8.122;2023-12-29T01:56:42;99901.19;;;8.90;88.81
84884;BME280;75145;49.188;8.122;2023-12-29T01:59:08;99896.34;;;8.83;88.37
84884;BME280;75145;49.188;8.122;2023-12-29T02:01:34;99898.03;;;8.84;88.89
84884;BME280;75145;49.188;8.122;2023-12-29T02:04:00;99901.63;;;8.83;88.95
84884;BME280;75145;49.188;8.122;2023-12-29T02:06:25;99889.38;;;8.82;89.16
84884;BME280;75145;49.188;8.122;2023-12-29T02:08:52;99878.84;;;8.82;88.39
84884;BME280;75145;49.188;8.122;2023-12-29T02:11:18;99880.28;;;8.87;87.79
84884;BME280;75145;49.188;8.122;2023-12-29T02:13:43;99881.38;;;8.84;88.23
84884;BME280;75145;49.188;8.122;2023-12-29T02:16:26;99880.97;;;8.77;87.92
84884;BME280;75145;49.188;8.122;2023-12-29T02:18:55;99880.09;;;8.90;87.91
84884;BME280;75145;49.188;8.122;2023-12-29T02:21:26;99871.84;;;8.94;87.15
84884;BME280;75145;49.188;8.122;2023-12-29T02:23:51;99873.31;;;8.98;88.33
84884;BME280;75145;49.188;8.122;2023-12-29T02:26:20;99880.72;;;8.93;87.98
84884;BME280;75145;49.188;8.122;2023-12-29T02:28:58;99868.13;;;8.97;86.73
84884;BME280;75145;49.188;8.122;2023-12-29T02:31:27;99871.84;;;8.94;87.43
84884;BME280;75145;49.188;8.122;2023-12-29T02:33:55;99874.59;;;8.93;87.96
84884;BME280;75145;49.188;8.122;2023-12-29T02:36:22;99874.13;;;8.99;87.53
84884;BME280;75145;49.188;8.122;2023-12-29T02:38:48;99871.00;;;8.94;87.83
84884;BME280;75145;49.188;8.122;2023-12-29T02:41:14;99866.56;;;8.94;87.46
84884;BME280;75145;49.188;8.122;2023-12-29T02:43:40;99865.38;;;8.98;88.05
84884;BME280;75145;49.188;8.122;2023-12-29T02:46:05;99858.53;;;8.96;86.98
84884;BME280;75145;49.188;8.122;2023-12-29T02:48:31;99861.06;;;8.97;86.97
84884;BME280;75145;49.188;8.122;2023-12-29T02:50:56;99861.69;;;9.01;87.96
84884;BME280;75145;49.188;8.122;2023-12-29T02:53:21;99859.38;;;8.96;87.28
84884;BME280;75145;49.188;8.122;2023-12-29T02:55:47;99852.84;;;8.89;88.42
84884;BME280;75145;49.188;8.122;2023-12-29T02:58:12;99854.56;;;8.90;87.93
84884;BME280;75145;49.188;8.122;2023-12-29T03:00:37;99869.75;;;8.87;87.97
84884;BME280;75145;49.188;8.122;2023-12-29T03:03:03;99859.19;;;8.87;89.01
84884;BME280;75145;49.188;8.122;2023-12-29T03:05:28;99861.72;;;8.88;88.32
84884;BME280;75145;49.188;8.122;2023-12-29T03:07:53;99852.25;;;8.85;89.21
84884;BME280;75145;49.188;8.122;2023-12-29T03:10:19;99853.50;;;8.93;88.09
84884;BME280;75145;49.188;8.122;2023-12-29T03:12:44;99854.22;;;8.95;88.38
84884;BME280;75145;49.188;8.122;2023-12-29T03:15:09;99856.84;;;8.95;88.60
84884;BME280;75145;49.188;8.122;2023-12-29T03:17:35;99853.88;;;8.99;87.77
84884;BME280;75145;49.188;8.122;2023-12-29T03:20:02;99850.16;;;9.02;88.13
84884;BME280;75145;49.188;8.122;2023-12-29T03:22:27;99847.53;;;9.02;88.65
84884;BME280;75145;49.188;8.122;2023-12-29T03:24:52;99851.13;;;9.01;88.00
84884;BME280;75145;49.188;8.122;2023-12-29T03:27:18;99837.22;;;8.99;87.63
84884;BME280;75145;49.188;8.122;2023-12-29T03:29:43;99855.69;;;8.99;88.44
84884;BME280;75145;49.188;8.122;2023-12-29T03:32:08;99856.41;;;9.01;87.88
84884;BME280;75145;49.188;8.122;2023-12-29T03:34:34;99848.00;;;8.96;88.29
84884;BME280;75145;49.188;8.122;2023-12-29T03:36:59;99856.84;;;8.95;89.18
84884;BME280;75145;49.188;8.122;2023-12-29T03:39:24;99869.31;;;8.93;88.77
84884;BME280;75145;49.188;8.122;2023-12-29T03:41:50;99864.78;;;8.95;89.23
84884;BME280;75145;49.188;8.122;2023-12-29T03:44:15;99859.38;;;8.96;89.60
84884;BME280;75145;49.188;8.122;2023-12-29T03:46:41;99857.34;;;9.00;89.37
84884;BME280;75145;49.188;8.122;2023-12-29T03:49:07;99846.81;;;9.00;89.16
84884;BME280;75145;49.188;8.122;2023-12-29T03:51:32;99838.88;;;9.00;88.74
84884;BME280;75145;49.188;8.122;2023-12-29T03:53:57;99850.69;;;9.07;89.10
84884;BME280;75145;49.188;8.122;2023-12-29T03:56:23;99842.06;;;9.05;89.25
84884;BME280;75145;49.188;8.122;2023-12-29T03:58:49;99852.38;;;9.08;88.75
84884;BME280;75145;49.188;8.122;2023-12-29T04:01:15;99866.53;;;9.07;89.12
84884;BME280;75145;49.188;8.122;2023-12-29T04:03:41;99855.97;;;9.07;88.78
84884;BME280;75145;49.188;8.122;2023-12-29T04:06:07;99861.13;;;9.08;88.60
84884;BME280;75145;49.188;8.122;2023-12-29T04:08:33;99853.09;;;9.10;89.00
84884;BME280;75145;49.188;8.122;2023-12-29T04:10:59;99858.50;;;9.08;89.24
84884;BME280;75145;49.188;8.122;2023-12-29T04:13:24;99851.19;;;9.12;88.71
84884;BME280;75145;49.188;8.122;2023-12-29T04:15:49;99845.19;;;9.10;89.85
84884;BME280;75145;49.188;8.122;2023-12-29T04:18:15;99848.66;;;9.10;89.87
84884;BME280;75145;49.188;8.122;2023-12-29T04:20:40;99854.66;;;9.12;88.70
84884;BME280;75145;49.188;8.122;2023-12-29T04:23:06;99854.66;;;9.12;89.01
84884;BME280;75145;49.188;8.122;2023-12-29T04:25:32;99857.94;;;9.16;89.52
84884;BME280;75145;49.188;8.122;2023-12-29T04:27:58;99864.78;;;9.19;88.75
84884;BME280;75145;49.188;8.122;2023-12-29T04:30:23;99861.31;;;9.18;89.57
84884;BME280;75145;49.188;8.122;2023-12-29T04:32:49;99863.13;;;9.18;88.72
84884;BME280;75145;49.188;8.122;2023-12-29T04:35:14;99862.47;;;9.14;89.47
84884;BME280;75145;49.188;8.122;2023-12-29T04:37:40;99862.47;;;9.14;89.09
84884;BME280;75145;49.188;8.122;2023-12-29T04:40:06;99861.63;;;9.13;90.27
84884;BME280;75145;49.188;8.122;2023-12-29T04:42:31;99846.25;;;9.07;90.00
84884;BME280;75145;49.188;8.122;2023-12-29T04:44:57;99846.97;;;9.09;90.80
84884;BME280;75145;49.188;8.122;2023-12-29T04:47:22;99854.72;;;9.00;91.30
84884;BME280;75145;49.188;8.122;2023-12-29T04:49:48;99856.03;;;8.94;91.39
84884;BME280;75145;49.188;8.122;2023-12-29T04:52:13;99856.25;;;8.91;91.77
84884;BME280;75145;49.188;8.122;2023-12-29T04:54:38;99848.75;;;8.85;90.84
84884;BME280;75145;49.188;8.122;2023-12-29T04:57:03;99855.34;;;8.79;91.03
84884;BME280;75145;49.188;8.122;2023-12-29T04:59:29;99867.69;;;8.79;91.70
84884;BME280;75145;49.188;8.122;2023-12-29T05:01:54;99855.53;;;8.76;92.14
84884;BME280;75145;49.188;8.122;2023-12-29T05:04:19;99840.28;;;8.69;92.01
84884;BME280;75145;49.188;8.122;2023-12-29T05:06:45;99860.28;;;8.71;92.47
84884;BME280;75145;49.188;8.122;2023-12-29T05:09:10;99847.00;;;8.73;91.98
84884;BME280;75145;49.188;8.122;2023-12-29T05:11:35;99839.19;;;8.71;91.98
84884;BME280;75145;49.188;8.122;2023-12-29T05:14:01;99835.63;;;8.72;92.18
84884;BME280;75145;49.188;8.122;2023-12-29T05:16:26;99837.94;;;8.77;92.98
84884;BME280;75145;49.188;8.122;2023-12-29T05:18:52;99828.22;;;8.77;91.93
84884;BME280;75145;49.188;8.122;2023-12-29T05:21:18;99825.97;;;8.84;92.12
84884;BME280;75145;49.188;8.122;2023-12-29T05:23:44;99815.78;;;8.79;92.15
84884;BME280;75145;49.188;8.122;2023-12-29T05:26:10;99813.69;;;8.72;92.03
84884;BME280;75145;49.188;8.122;2023-12-29T05:28:36;99821.69;;;8.70;92.10
84884;BME280;75145;49.188;8.122;2023-12-29T05:31:01;99824.44;;;8.69;91.52
84884;BME280;75145;49.188;8.122;2023-12-29T05:33:32;99821.94;;;8.67;91.00
84884;BME280;75145;49.188;8.122;2023-12-29T05:35:58;99833.75;;;8.62;91.95
84884;BME280;75145;49.188;8.122;2023-12-29T05:38:25;99835.63;;;8.72;90.33
84884;BME280;75145;49.188;8.122;2023-12-29T05:40:50;99841.13;;;8.69;91.05
84884;BME280;75145;49.188;8.122;2023-12-29T05:43:16;99839.84;;;8.62;89.82
84884;BME280;75145;49.188;8.122;2023-12-29T05:45:41;99851.88;;;8.66;90.14
84884;BME280;75145;49.188;8.122;2023-12-29T05:48:07;99839.25;;;8.59;90.74
84884;BME280;75145;49.188;8.122;2023-12-29T05:50:33;99852.53;;;8.57;90.61
84884;BME280;75145;49.188;8.122;2023-12-29T05:52:58;99856.34;;;8.53;91.30
84884;BME280;75145;49.188;8.122;2023-12-29T05:55:23;99844.53;;;8.46;91.15
84884;BME280;75145;49.188;8.122;2023-12-29T05:57:49;99859.16;;;8.50;92.11
84884;BME280;75145;49.188;8.122;2023-12-29T06:00:14;99860.94;;;8.62;90.32
84884;BME280;75145;49.188;8.122;2023-12-29T06:02:41;99848.94;;;8.58;91.06
84884;BME280;75145;49.188;8.122;2023-12-29T06:05:07;99848.72;;;8.61;90.00
84884;BME280;75145;49.188;8.122;2023-12-29T06:07:33;99864.41;;;8.63;90.06
84884;BME280;75145;49.188;8.122;2023-12-29T06:09:59;99857.56;;;8.60;89.72
84884;BME280;75145;49.188;8.122;2023-12-29T06:12:24;99853.69;;;8.66;87.98
84884;BME280;75145;49.188;8.122;2023-12-29T06:14:50;99868.13;;;8.60;87.80
84884;BME280;75145;49.188;8.122;2023-12-29T06:17:15;99860.09;;;8.62;88.19
84884;BME280;75145;49.188;8.122;2023-12-29T06:19:41;99866.03;;;8.65;87.26
84884;BME280;75145;49.188;8.122;2023-12-29T06:22:06;99872.66;;;8.58;88.27
84884;BME280;75145;49.188;8.122;2023-12-29T06:24:36;99861.63;;;8.53;89.51
84884;BME280;75145;49.188;8.122;2023-12-29T06:27:02;99861.16;;;8.59;88.40
84884;BME280;75145;49.188;8.122;2023-12-29T06:29:27;99847.25;;;8.57;87.73
84884;BME280;75145;49.188;8.122;2023-12-29T06:31:53;99852.72;;;8.67;85.99
84884;BME280;75145;49.188;8.122;2023-12-29T06:34:18;99854.94;;;8.60;86.63
84884;BME280;75145;49.188;8.122;2023-12-29T06:36:44;99858.53;;;8.59;87.45
84884;BME280;75145;49.188;8.122;2023-12-29T06:39:09;99847.03;;;8.60;86.95
84884;BME280;75145;49.188;8.122;2023-12-29T06:41:34;99855.50;;;8.52;88.53
84884;BME280;75145;49.188;8.122;2023-12-29T06:44:00;99853.38;;;8.45;88.84
84884;BME280;75145;49.188;8.122;2023-12-29T06:46:25;99851.94;;;8.41;89.89
84884;BME280;75145;49.188;8.122;2023-12-29T06:48:51;99848.56;;;8.39;89.04
84884;BME280;75145;49.188;8.122;2023-12-29T06:51:19;99845.34;;;8.34;89.86
84884;BME280;75145;49.188;8.122;2023-12-29T06:53:48;99834.63;;;8.37;89.20
84884;BME280;75145;49.188;8.122;2023-12-29T06:56:15;99844.44;;;8.35;88.90
84884;BME280;75145;49.188;8.122;2023-12-29T06:58:40;99844.44;;;8.35;89.29
84884;BME280;75145;49.188;8.122;2023-12-29T07:01:06;99838.31;;;8.47;90.11
84884;BME280;75145;49.188;8.122;2023-12-29T07:03:31;99844.13;;;8.52;87.83
84884;BME280;75145;49.188;8.122;2023-12-29T07:05:56;99839.34;;;8.57;87.60
84884;BME280;75145;49.188;8.122;2023-12-29T07:08:22;99834.19;;;8.55;88.05
84884;BME280;75145;49.188;8.122;2023-12-29T07:10:47;99821.84;;;8.56;88.75
84884;BME280;75145;49.188;8.122;2023-12-29T07:13:15;99835.25;;;8.53;88.64
84884;BME280;75145;49.188;8.122;2023-12-29T07:15:40;99820.38;;;8.65;86.81
84884;BME280;75145;49.188;8.122;2023-12-29T07:18:06;99831.63;;;8.67;86.72
84884;BME280;75145;49.188;8.122;2023-12-29T07:20:31;99840.88;;;8.72;86.71
84884;BME280;75145;49.188;8.122;2023-12-29T07:22:58;99844.97;;;8.76;87.53
84884;BME280;75145;49.188;8.122;2023-12-29T07:25:23;99845.69;;;8.91;83.90
84884;BME280;75145;49.188;8.122;2023-12-29T07:27:48;99848.00;;;8.96;84.84
84884;BME280;75145;49.188;8.122;2023-12-29T07:30:14;99850.28;;;9.00;84.54
84884;BME280;75145;49.188;8.122;2023-12-29T07:32:39;99836.66;;;9.06;84.42
84884;BME280;75145;49.188;8.122;2023-12-29T07:35:05;99847.41;;;9.16;84.22
84884;BME280;75145;49.188;8.122;2023-12-29T07:37:30;99844.47;;;9.08;84.49
84884;BME280;75145;49.188;8.122;2023-12-29T07:39:56;99844.00;;;9.14;84.05
84884;BME280;75145;49.188;8.122;2023-12-29T07:42:21;99845.38;;;9.20;83.13
84884;BME280;75145;49.188;8.122;2023-12-29T07:44:46;99842.59;;;9.21;83.21
84884;BME280;75145;49.188;8.122;2023-12-29T07:47:12;99852.25;;;9.33;82.13
84884;BME280;75145;49.188;8.122;2023-12-29T07:49:37;99841.69;;;9.33;81.31
84884;BME280;75145;49.188;8.122;2023-12-29T07:52:03;99847.59;;;9.37;82.27
84884;BME280;75145;49.188;8.122;2023-12-29T07:54:28;99843.38;;;9.34;82.58
84884;BME280;75145;49.188;8.122;2023-12-29T07:56:54;99830.31;;;9.33;82.48
84884;BME280;75145;49.188;8.122;2023-12-29T07:59:19;99823.72;;;9.38;81.96
84884;BME280;75145;49.188;8.122;2023-12-29T08:01:45;99825.88;;;9.33;82.94
84884;BME280;75145;49.188;8.122;2023-12-29T08:04:13;99840.78;;;9.46;83.24
84884;BME280;75145;49.188;8.122;2023-12-29T08:06:39;99829.03;;;9.50;82.04
84884;BME280;75145;49.188;8.122;2023-12-29T08:09:04;99839.53;;;9.62;80.03
84884;BME280;75145;49.188;8.122;2023-12-29T08:11:30;99839.41;;;9.64;81.74
84884;BME280;75145;49.188;8.122;2023-12-29T08:13:55;99841.19;;;9.63;81.45
84884;BME280;75145;49.188;8.122;2023-12-29T08:16:21;99836.56;;;9.67;81.30
84884;BME280;75145;49.188;8.122;2023-12-29T08:18:48;99838.72;;;9.73;81.84
84884;BME280;75145;49.188;8.122;2023-12-29T08:21:18;99840.91;;;9.79;81.82
84884;BME280;75145;49.188;8.122;2023-12-29T08:23:47;99838.25;;;9.68;82.62
84884;BME280;75145;49.188;8.122;2023-12-29T08:26:12;99845.34;;;9.79;81.61
84884;BME280;75145;49.188;8.122;2023-12-29T08:28:38;99862.03;;;9.90;81.51
84884;BME280;75145;49.188;8.122;2023-12-29T08:31:03;99853.09;;;10.04;80.80
84884;BME280;75145;49.188;8.122;2023-12-29T08:33:28;99846.63;;;10.19;80.79
84884;BME280;75145;49.188;8.122;2023-12-29T08:35:54;99851.81;;;10.32;79.50
84884;BME280;75145;49.188;8.122;2023-12-29T08:38:24;99852.53;;;10.45;78.87
84884;BME280;75145;49.188;8.122;2023-12-29T08:40:49;99849.53;;;10.50;78.74
84884;BME280;75145;49.188;8.122;2023-12-29T08:43:15;99850.38;;;10.61;78.84
84884;BME280;75145;49.188;8.122;2023-12-29T08:45:42;99839.66;;;10.74;77.17
84884;BME280;75145;49.188;8.122;2023-12-29T08:48:07;99850.69;;;10.79;77.18
84884;BME280;75145;49.188;8.122;2023-12-29T08:50:33;99858.97;;;10.97;73.32
84884;BME280;75145;49.188;8.122;2023-12-29T08:52:58;99863.44;;;11.29;70.01
84884;BME280;75145;49.188;8.122;2023-12-29T08:55:23;99859.44;;;11.45;67.34
84884;BME280;75145;49.188;8.122;2023-12-29T08:57:49;99858.28;;;11.59;68.59
84884;BME280;75145;49.188;8.122;2023-12-29T09:00:14;99867.66;;;11.63;68.55
84884;BME280;75145;49.188;8.122;2023-12-29T09:02:39;99868.66;;;11.51;68.27
84884;BME280;75145;49.188;8.122;2023-12-29T09:05:06;99865.56;;;11.46;68.99
84884;BME280;75145;49.188;8.122;2023-12-29T09:07:32;99869.91;;;11.47;68.95
84884;BME280;75145;49.188;8.122;2023-12-29T09:09:58;99870.63;;;11.49;67.49
84884;BME280;75145;49.188;8.122;2023-12-29T09:12:24;99862.09;;;11.45;67.47
84884;BME280;75145;49.188;8.122;2023-12-29T09:14:49;99872.75;;;11.55;67.19
84884;BME280;75145;49.188;8.122;2023-12-29T09:17:14;99868.56;;;11.85;66.36
84884;BME280;75145;49.188;8.122;2023-12-29T09:19:40;99868.81;;;12.02;65.72
84884;BME280;75145;49.188;8.122;2023-12-29T09:22:05;99867.13;;;12.22;64.92
84884;BME280;75145;49.188;8.122;2023-12-29T09:24:31;99857.19;;;12.55;63.78
84884;BME280;75145;49.188;8.122;2023-12-29T09:26:56;99855.16;;;12.68;64.06
84884;BME280;75145;49.188;8.122;2023-12-29T09:29:21;99861.16;;;13.10;61.82
84884;BME280;75145;49.188;8.122;2023-12-29T09:31:47;99864.81;;;13.19;62.33
84884;BME280;75145;49.188;8.122;2023-12-29T09:34:12;99865.94;;;13.45;61.43
84884;BME280;75145;49.188;8.122;2023-12-29T09:36:37;99860.66;;;13.65;60.33
84884;BME280;75145;49.188;8.122;2023-12-29T09:39:03;99861.06;;;13.70;59.77
84884;BME280;75145;49.188;8.122;2023-12-29T09:41:31;99858.41;;;13.89;58.72
84884;BME280;75145;49.188;8.122;2023-12-29T09:43:57;99865.94;;;13.84;58.75
84884;BME280;75145;49.188;8.122;2023-12-29T09:46:23;99868.47;;;13.66;58.77
84884;BME280;75145;49.188;8.122;2023-12-29T09:48:52;99868.13;;;14.18;58.10
84884;BME280;75145;49.188;8.122;2023-12-29T09:51:17;99863.25;;;14.60;57.55
84884;BME280;75145;49.188;8.122;2023-12-29T09:53:47;99848.72;;;14.54;56.29
84884;BME280;75145;49.188;8.122;2023-12-29T09:56:13;99869.28;;;14.62;56.60
84884;BME280;75145;49.188;8.122;2023-12-29T09:58:40;99861.75;;;13.91;58.79
84884;BME280;75145;49.188;8.122;2023-12-29T10:01:06;99860.63;;;13.45;59.50
84884;BME280;75145;49.188;8.122;2023-12-29T10:03:32;99851.94;;;13.14;60.04
84884;BME280;75145;49.188;8.122;2023-12-29T10:06:00;99837.66;;;13.06;60.34
84884;BME280;75145;49.188;8.122;2023-12-29T10:08:27;99842.19;;;13.34;59.84
84884;BME280;75145;49.188;8.122;2023-12-29T10:10:53;99839.25;;;13.57;59.35
84884;BME280;75145;49.188;8.122;2023-12-29T10:13:21;99827.38;;;13.61;59.57
84884;BME280;75145;49.188;8.122;2023-12-29T10:16:32;99807.34;;;13.57;58.94
84884;BME280;75145;49.188;8.122;2023-12-29T10:19:30;99830.22;;;14.06;57.11
84884;BME280;75145;49.188;8.122;2023-12-29T10:22:24;99828.41;;;13.97;56.76
84884;BME280;75145;49.188;8.122;2023-12-29T10:24:51;99813.94;;;14.19;56.35
84884;BME280;75145;49.188;8.122;2023-12-29T10:27:17;99809.56;;;14.27;55.36
84884;BME280;75145;49.188;8.122;2023-12-29T10:29:43;99815.81;;;14.46;56.85
84884;BME280;75145;49.188;8.122;2023-12-29T10:32:09;99806.25;;;14.16;56.16
84884;BME280;75145;49.188;8.122;2023-12-29T10:34:34;99810.66;;;14.34;55.98
84884;BME280;75145;49.188;8.122;2023-12-29T10:37:01;99812.06;;;13.82;57.80
84884;BME280;75145;49.188;8.122;2023-12-29T10:39:35;99812.38;;;13.79;58.27
84884;BME280;75145;49.188;8.122;2023-12-29T10:42:07;99809.16;;;13.75;57.76
84884;BME280;75145;49.188;8.122;2023-12-29T10:44:35;99815.03;;;13.69;59.66
84884;BME280;75145;49.188;8.122;2023-12-29T10:47:10;99808.91;;;13.49;59.56
84884;BME280;75145;49.188;8.122;2023-12-29T10:49:36;99811.78;;;12.98;60.50
84884;BME280;75145;49.188;8.122;2023-12-29T10:52:13;99821.59;;;13.17;60.92
84884;BME280;75145;49.188;8.122;2023-12-29T10:54:39;99808.78;;;13.22;60.49
84884;BME280;75145;49.188;8.122;2023-12-29T10:57:04;99811.44;;;13.22;60.67
84884;BME280;75145;49.188;8.122;2023-12-29T10:59:30;99819.44;;;12.82;62.94
84884;BME280;75145;49.188;8.122;2023-12-29T11:01:56;99807.72;;;12.94;62.52
84884;BME280;75145;49.188;8.122;2023-12-29T11:04:24;99809.41;;;13.05;62.20
84884;BME280;75145;49.188;8.122;2023-12-29T11:06:50;99808.16;;;12.99;62.71
84884;BME280;75145;49.188;8.122;2023-12-29T11:09:32;99808.31;;;12.98;62.49
84884;BME280;75145;49.188;8.122;2023-12-29T11:12:00;99816.97;;;13.00;63.05
84884;BME280;75145;49.188;8.122;2023-12-29T11:14:26;99808.09;;;12.70;63.64
84884;BME280;75145;49.188;8.122;2023-12-29T11:16:54;99810.25;;;12.86;61.76
84884;BME280;75145;49.188;8.122;2023-12-29T11:19:21;99805.75;;;12.86;62.89
84884;BME280;75145;49.188;8.122;2023-12-29T11:21:46;99813.28;;;12.81;62.70
84884;BME280;75145;49.188;8.122;2023-12-29T11:24:13;99813.63;;;12.98;61.84
84884;BME280;75145;49.188;8.122;2023-12-29T11:26:39;99810.31;;;13.24;61.66
84884;BME280;75145;49.188;8.122;2023-12-29T11:29:05;99816.19;;;13.28;61.84
84884;BME280;75145;49.188;8.122;2023-12-29T11:31:32;99800.72;;;12.93;61.64
84884;BME280;75145;49.188;8.122;2023-12-29T11:34:05;99801.56;;;12.74;62.71
84884;BME280;75145;49.188;8.122;2023-12-29T11:36:39;99794.81;;;12.70;63.24
84884;BME280;75145;49.188;8.122;2023-12-29T11:39:23;99798.03;;;12.64;63.62
84884;BME280;75145;49.188;8.122;2023-12-29T11:44:42;99785.75;;;12.73;62.67
84884;BME280;75145;49.188;8.122;2023-12-29T11:47:35;99791.78;;;12.84;62.26
84884;BME280;75145;49.188;8.122;2023-12-29T11:50:02;99779.50;;;12.83;62.10
84884;BME280;75145;49.188;8.122;2023-12-29T11:52:38;99773.34;;;12.92;61.57
84884;BME280;75145;49.188;8.122;2023-12-29T11:55:11;99776.72;;;12.85;62.25
84884;BME280;75145;49.188;8.122;2023-12-29T11:57:38;99766.75;;;12.77;62.63
84884;BME280;75145;49.188;8.122;2023-12-29T12:00:07;99760.91;;;12.74;61.01
84884;BME280;75145;49.188;8.122;2023-12-29T12:02:33;99759.63;;;12.68;62.27
84884;BME280;75145;49.188;8.122;2023-12-29T12:04:59;99770.81;;;12.72;61.49
84884;BME280;75145;49.188;8.122;2023-12-29T12:09:50;99765.22;;;12.65;62.93
84884;BME280;75145;49.188;8.122;2023-12-29T12:12:39;99759.88;;;12.55;62.64
84884;BME280;75145;49.188;8.122;2023-12-29T12:17:58;99757.91;;;12.48;63.72
84884;BME280;75145;49.188;8.122;2023-12-29T12:20:24;99750.47;;;12.42;63.90
84884;BME280;75145;49.188;8.122;2023-12-29T12:23:01;99748.09;;;12.38;63.42
84884;BME280;75145;49.188;8.122;2023-12-29T12:25:27;99756.06;;;12.38;63.57
84884;BME280;75145;49.188;8.122;2023-12-29T12:27:58;99763.03;;;12.40;64.84
84884;BME280;75145;49.188;8.122;2023-12-29T12:30:24;99745.03;;;12.33;65.30
84884;BME280;75145;49.188;8.122;2023-12-29T12:32:59;99756.44;;;12.24;65.01
84884;BME280;75145;49.188;8.122;2023-12-29T12:35:25;99754.19;;;12.20;65.25
84884;BME280;75145;49.188;8.122;2023-12-29T12:38:12;99761.69;;;12.15;64.84
84884;BME280;75145;49.188;8.122;2023-12-29T12:40:39;99751.94;;;12.15;64.84
84884;BME280;75145;49.188;8.122;2023-12-29T12:43:05;99739.75;;;12.03;64.76
84884;BME280;75145;49.188;8.122;2023-12-29T12:45:42;99723.13;;;12.01;65.17
84884;BME280;75145;49.188;8.122;2023-12-29T12:48:40;99767.56;;;12.18;64.18
84884;BME280;75145;49.188;8.122;2023-12-29T12:51:07;99764.66;;;12.21;64.62
84884;BME280;75145;49.188;8.122;2023-12-29T12:53:32;99747.09;;;12.20;64.43
84884;BME280;75145;49.188;8.122;2023-12-29T12:55:58;99753.34;;;12.19;64.42
84884;BME280;75145;49.188;8.122;2023-12-29T12:58:23;99760.06;;;12.23;64.70
84884;BME280;75145;49.188;8.122;2023-12-29T13:00:51;99751.28;;;12.23;64.70
84884;BME280;75145;49.188;8.122;2023-12-29T13:03:16;99746.41;;;12.28;64.64
84884;BME280;75145;49.188;8.122;2023-12-29T13:05:43;99759.28;;;12.32;63.19
84884;BME280;75145;49.188;8.122;2023-12-29T13:08:09;99757.31;;;12.34;62.71
84884;BME280;75145;49.188;8.122;2023-12-29T13:10:40;99760.38;;;12.40;63.56
84884;BME280;75145;49.188;8.122;2023-12-29T13:13:07;99764.44;;;12.34;63.27